Time;durP1;ratioP1;P1;durP2;ratioP2;P2;SDS_P1;SDS_P2;PMS_P1;PMS_P2;Temp;Humidity;BMP_temperature;BMP_pressure;BME280_temperature;BME280_humidity;BME280_pressure;Samples;Min_cycle;Max_cycle;Signal;HPM_P1;HPM_P2
2023/07/18 00:01:37;;;;;;;5.37;2.57;;;;;;;;;;5134450;27;20197;-76
2023/07/18 00:04:05;;;;;;;5.90;1.90;;;;;;;;;;5134003;27;20743;-76
2023/07/18 00:06:33;;;;;;;3.33;1.80;;;;;;;;;;5134768;27;20616;-76
2023/07/18 00:09:00;;;;;;;3.87;1.70;;;;;;;;;;5133705;27;20765;-76
2023/07/18 00:11:27;;;;;;;3.80;1.63;;;;;;;;;;5134295;27;20630;-77
2023/07/18 00:13:54;;;;;;;7.33;2.00;;;;;;;;;;5134165;27;20631;-77
2023/07/18 00:16:21;;;;;;;4.97;2.20;;;;;;;;;;5133978;27;20292;-76
2023/07/18 00:18:50;;;;;;;5.90;2.20;;;;;;;;;;5134135;27;20189;-76
2023/07/18 00:21:17;;;;;;;4.43;1.93;;;;;;;;;;5134105;27;20201;-75
2023/07/18 00:23:44;;;;;;;8.93;2.40;;;;;;;;;;5133578;27;20221;-76
2023/07/18 00:26:12;;;;;;;5.30;2.20;;;;;;;;;;5133858;27;20572;-76
2023/07/18 00:28:39;;;;;;;5.03;2.23;;;;;;;;;;5133864;27;20777;-75
2023/07/18 00:31:06;;;;;;;6.07;2.30;;;;;;;;;;5133711;27;20200;-76
2023/07/18 00:33:33;;;;;;;6.77;2.13;;;;;;;;;;5133808;27;20242;-76
2023/07/18 00:36:02;;;;;;;3.87;2.10;;;;;;;;;;5133388;27;20285;-76
2023/07/18 00:38:29;;;;;;;6.43;2.27;;;;;;;;;;5133422;27;20200;-76
2023/07/18 00:40:56;;;;;;;7.70;2.20;;;;;;;;;;5133566;27;20229;-76
2023/07/18 00:43:23;;;;;;;4.83;2.50;;;;;;;;;;5133962;27;20288;-75
2023/07/18 00:45:51;;;;;;;8.20;2.67;;;;;;;;;;5133523;27;20223;-76
2023/07/18 00:48:18;;;;;;;3.43;2.13;;;;;;;;;;5133536;27;20759;-76
2023/07/18 00:50:45;;;;;;;3.47;2.40;;;;;;;;;;5132627;27;20260;-75
2023/07/18 00:53:14;;;;;;;4.83;2.47;;;;;;;;;;5133701;27;20738;-76
2023/07/18 00:55:42;;;;;;;4.53;2.23;;;;;;;;;;5133333;27;20228;-75
2023/07/18 00:58:09;;;;;;;4.73;2.50;;;;;;;;;;5133425;27;20280;-75
2023/07/18 01:00:38;;;;;;;5.37;2.67;;;;;;;;;;5133248;27;20815;-79
2023/07/18 01:03:06;;;;;;;5.27;2.40;;;;;;;;;;5133209;27;20193;-75
2023/07/18 01:05:34;;;;;;;4.63;2.40;;;;;;;;;;5132621;27;20285;-76
2023/07/18 01:08:03;;;;;;;4.63;2.53;;;;;;;;;;5133044;27;21060;-76
2023/07/18 01:10:31;;;;;;;4.00;2.40;;;;;;;;;;5132603;27;20764;-75
2023/07/18 01:12:59;;;;;;;6.53;2.77;;;;;;;;;;5133057;27;20193;-76
2023/07/18 01:15:27;;;;;;;5.17;2.20;;;;;;;;;;5132983;27;20201;-76
2023/07/18 01:17:54;;;;;;;6.33;2.13;;;;;;;;;;5132712;27;20231;-76
2023/07/18 01:20:22;;;;;;;4.17;2.30;;;;;;;;;;5132450;27;20284;-76
2023/07/18 01:22:51;;;;;;;4.40;2.37;;;;;;;;;;5133340;27;20197;-76
2023/07/18 01:25:19;;;;;;;4.53;2.30;;;;;;;;;;5132768;27;20653;-74
2023/07/18 01:27:46;;;;;;;4.23;2.30;;;;;;;;;;5132815;27;20292;-76
2023/07/18 01:30:14;;;;;;;6.67;2.27;;;;;;;;;;5132399;27;20665;-76
2023/07/18 01:32:42;;;;;;;5.13;2.20;;;;;;;;;;5132701;27;20596;-76
2023/07/18 01:35:09;;;;;;;5.20;2.27;;;;;;;;;;5132020;27;20211;-76
2023/07/18 01:37:37;;;;;;;3.70;2.30;;;;;;;;;;5124652;27;20225;-76
2023/07/18 01:40:08;;;;;;;4.00;2.00;;;;;;;;;;5111922;28;20689;-75
2023/07/18 01:42:35;;;;;;;3.90;2.37;;;;;;;;;;5111951;28;20322;-75
2023/07/18 01:45:03;;;;;;;5.20;2.33;;;;;;;;;;5112053;28;20329;-75
2023/07/18 01:47:31;;;;;;;4.53;2.20;;;;;;;;;;5112383;28;20193;-75
2023/07/18 01:49:58;;;;;;;3.87;2.20;;;;;;;;;;5111729;28;20201;-76
2023/07/18 01:52:27;;;;;;;3.50;2.40;;;;;;;;;;5111695;28;20597;-75
2023/07/18 01:54:58;;;;;;;4.37;2.07;;;;;;;;;;5111756;28;20221;-75
2023/07/18 01:57:26;;;;;;;3.93;2.43;;;;;;;;;;5112428;28;20206;-75
2023/07/18 01:59:54;;;;;;;4.70;2.20;;;;;;;;;;5111732;28;20208;-76
2023/07/18 02:02:21;;;;;;;4.83;2.07;;;;;;;;;;5111776;28;20264;-76
2023/07/18 02:04:49;;;;;;;4.97;2.27;;;;;;;;;;5111365;28;20278;-76
2023/07/18 02:07:16;;;;;;;5.23;2.60;;;;;;;;;;5111687;28;20197;-76
2023/07/18 02:09:43;;;;;;;4.07;2.00;;;;;;;;;;5111795;28;20277;-76
2023/07/18 02:12:11;;;;;;;5.43;2.20;;;;;;;;;;5111835;28;20205;-75
2023/07/18 02:14:39;;;;;;;3.93;2.13;;;;;;;;;;5111766;28;20207;-75
2023/07/18 02:17:08;;;;;;;5.10;2.33;;;;;;;;;;5128607;28;20291;-76
2023/07/18 02:19:35;;;;;;;5.07;2.33;;;;;;;;;;5131623;28;20195;-76
2023/07/18 02:22:03;;;;;;;7.27;2.57;;;;;;;;;;5132932;27;20193;-75
2023/07/18 02:24:30;;;;;;;4.60;2.30;;;;;;;;;;5136512;27;20225;-75
2023/07/18 02:26:57;;;;;;;4.73;2.10;;;;;;;;;;5136113;27;20228;-76
2023/07/18 02:29:25;;;;;;;7.47;2.10;;;;;;;;;;5136094;27;20725;-75
2023/07/18 02:31:53;;;;;;;5.83;2.20;;;;;;;;;;5136079;27;20227;-75
2023/07/18 02:34:22;;;;;;;5.90;2.90;;;;;;;;;;5135862;27;20204;-75
2023/07/18 02:36:49;;;;;;;6.57;2.50;;;;;;;;;;5135967;27;20200;-75
2023/07/18 02:39:16;;;;;;;4.20;2.27;;;;;;;;;;5135998;27;20296;-75
2023/07/18 02:41:44;;;;;;;3.53;2.07;;;;;;;;;;5135928;27;20229;-76
2023/07/18 02:44:12;;;;;;;7.43;2.37;;;;;;;;;;5136223;27;20193;-76
2023/07/18 02:46:39;;;;;;;6.00;2.60;;;;;;;;;;5135400;27;20198;-75
2023/07/18 02:49:08;;;;;;;3.97;2.30;;;;;;;;;;5136070;27;20280;-76
2023/07/18 02:51:36;;;;;;;4.73;2.03;;;;;;;;;;5135719;27;20335;-74
2023/07/18 02:54:03;;;;;;;4.83;2.17;;;;;;;;;;5135873;27;20284;-76
2023/07/18 02:56:32;;;;;;;5.23;2.13;;;;;;;;;;5135529;27;20200;-76
2023/07/18 02:59:00;;;;;;;6.20;2.50;;;;;;;;;;5135651;27;20197;-75
2023/07/18 03:01:29;;;;;;;4.03;1.80;;;;;;;;;;5135341;27;20284;-75
2023/07/18 03:03:56;;;;;;;4.20;1.90;;;;;;;;;;5135574;27;20232;-75
2023/07/18 03:06:24;;;;;;;4.40;2.00;;;;;;;;;;5135408;27;20224;-75
2023/07/18 03:08:52;;;;;;;6.57;2.27;;;;;;;;;;5135395;27;20291;-75
2023/07/18 03:11:19;;;;;;;4.73;1.93;;;;;;;;;;5135171;27;20291;-75
2023/07/18 03:13:46;;;;;;;4.97;1.67;;;;;;;;;;5135392;27;20579;-75
2023/07/18 03:16:13;;;;;;;3.83;1.90;;;;;;;;;;5134685;27;20287;-76
2023/07/18 03:18:41;;;;;;;3.87;1.90;;;;;;;;;;5135277;27;20197;-76
2023/07/18 03:21:08;;;;;;;3.50;1.70;;;;;;;;;;5135299;27;20296;-75
2023/07/18 03:23:37;;;;;;;5.10;2.23;;;;;;;;;;5135219;27;20189;-75
2023/07/18 03:26:04;;;;;;;4.77;1.97;;;;;;;;;;5134957;27;20797;-75
2023/07/18 03:28:32;;;;;;;4.43;2.10;;;;;;;;;;5135032;27;20685;-75
2023/07/18 03:30:59;;;;;;;4.60;1.73;;;;;;;;;;5134566;27;20763;-75
2023/07/18 03:33:26;;;;;;;4.17;1.93;;;;;;;;;;5134807;27;20197;-75
2023/07/18 03:35:53;;;;;;;4.37;2.00;;;;;;;;;;5134790;27;20287;-76
2023/07/18 03:38:20;;;;;;;2.93;1.73;;;;;;;;;;5134879;27;20197;-76
2023/07/18 03:40:49;;;;;;;4.03;1.63;;;;;;;;;;5134823;27;20280;-76
2023/07/18 03:43:16;;;;;;;4.70;2.00;;;;;;;;;;5134806;27;20228;-76
2023/07/18 03:45:43;;;;;;;5.10;2.10;;;;;;;;;;5134481;27;20645;-76
2023/07/18 03:48:10;;;;;;;5.50;1.93;;;;;;;;;;5134840;27;20673;-75
2023/07/18 03:50:38;;;;;;;6.10;1.97;;;;;;;;;;5134249;27;20772;-76
2023/07/18 03:53:05;;;;;;;5.23;1.93;;;;;;;;;;5134904;27;20222;-75
2023/07/18 03:55:32;;;;;;;4.57;1.90;;;;;;;;;;5134460;27;20284;-75
2023/07/18 03:58:01;;;;;;;5.23;1.90;;;;;;;;;;5134457;27;20660;-76
2023/07/18 04:00:28;;;;;;;3.57;1.90;;;;;;;;;;5134482;27;20571;-76
2023/07/18 04:02:57;;;;;;;6.93;2.00;;;;;;;;;;5134510;27;20242;-75
2023/07/18 04:05:24;;;;;;;2.93;1.60;;;;;;;;;;5134115;27;20597;-76
2023/07/18 04:07:52;;;;;;;3.87;1.50;;;;;;;;;;5134346;27;20197;-76
2023/07/18 04:10:19;;;;;;;4.10;1.63;;;;;;;;;;5134603;27;20258;-75
2023/07/18 04:12:46;;;;;;;5.50;1.90;;;;;;;;;;5133928;27;20189;-75
2023/07/18 04:15:15;;;;;;;4.40;1.73;;;;;;;;;;5133689;27;20300;-76
2023/07/18 04:17:43;;;;;;;7.83;1.90;;;;;;;;;;5134129;27;20288;-76
2023/07/18 04:20:13;;;;;;;2.87;1.70;;;;;;;;;;5133912;27;20216;-76
2023/07/18 04:22:40;;;;;;;6.27;1.90;;;;;;;;;;5134096;27;20230;-75
2023/07/18 04:25:07;;;;;;;5.90;1.80;;;;;;;;;;5134149;27;20701;-75
2023/07/18 04:27:35;;;;;;;3.13;1.50;;;;;;;;;;5133714;27;20764;-75
2023/07/18 04:30:02;;;;;;;4.23;1.57;;;;;;;;;;5133457;27;20647;-75
2023/07/18 04:32:30;;;;;;;5.20;1.87;;;;;;;;;;5133874;27;20224;-76
2023/07/18 04:34:57;;;;;;;3.13;1.57;;;;;;;;;;5133726;27;20224;-75
2023/07/18 04:37:25;;;;;;;5.97;1.93;;;;;;;;;;5133474;27;20653;-75
2023/07/18 04:39:52;;;;;;;2.87;1.70;;;;;;;;;;5134247;27;20205;-76
2023/07/18 04:42:19;;;;;;;5.27;1.70;;;;;;;;;;5133622;27;20362;-75
2023/07/18 04:44:46;;;;;;;4.73;1.70;;;;;;;;;;5133077;27;20639;-76
2023/07/18 04:47:13;;;;;;;6.17;2.00;;;;;;;;;;5132524;27;20227;-76
2023/07/18 04:49:42;;;;;;;4.07;1.73;;;;;;;;;;5133646;27;20220;-75
2023/07/18 04:52:09;;;;;;;4.73;1.47;;;;;;;;;;5133293;27;20324;-76
2023/07/18 04:54:37;;;;;;;4.23;1.47;;;;;;;;;;5133385;27;20281;-76
2023/07/18 04:57:05;;;;;;;3.27;1.50;;;;;;;;;;5133451;27;20292;-76
2023/07/18 04:59:32;;;;;;;4.37;1.77;;;;;;;;;;5133069;27;20197;-75
2023/07/18 05:02:00;;;;;;;5.07;1.90;;;;;;;;;;5133286;27;20283;-76
2023/07/18 05:04:27;;;;;;;5.53;2.07;;;;;;;;;;5133099;27;20293;-75
2023/07/18 05:06:55;;;;;;;4.13;1.70;;;;;;;;;;5133574;27;20224;-75
2023/07/18 05:09:22;;;;;;;4.07;1.60;;;;;;;;;;5132928;27;20287;-75
2023/07/18 05:11:50;;;;;;;7.00;1.80;;;;;;;;;;5132522;27;20314;-75
2023/07/18 05:14:17;;;;;;;3.33;1.60;;;;;;;;;;5132831;27;20193;-76
2023/07/18 05:16:44;;;;;;;2.57;1.27;;;;;;;;;;5132959;27;20284;-76
2023/07/18 05:19:11;;;;;;;3.77;1.80;;;;;;;;;;5133146;27;20205;-76
2023/07/18 05:21:38;;;;;;;4.90;1.63;;;;;;;;;;5133102;27;20229;-76
2023/07/18 05:24:07;;;;;;;5.57;1.67;;;;;;;;;;5132856;27;20283;-76
2023/07/18 05:26:34;;;;;;;4.43;1.53;;;;;;;;;;5132528;27;20319;-76
2023/07/18 05:29:01;;;;;;;4.30;2.00;;;;;;;;;;5133163;27;20348;-76
2023/07/18 05:31:28;;;;;;;5.23;1.70;;;;;;;;;;5132915;27;20231;-75
2023/07/18 05:33:56;;;;;;;6.00;1.60;;;;;;;;;;5132759;27;20207;-76
2023/07/18 05:36:23;;;;;;;4.27;1.37;;;;;;;;;;5132512;27;20284;-75
2023/07/18 05:38:50;;;;;;;4.80;1.80;;;;;;;;;;5132903;27;20280;-76
2023/07/18 05:41:18;;;;;;;5.37;1.67;;;;;;;;;;5132538;27;20192;-76
2023/07/18 05:43:46;;;;;;;4.40;1.70;;;;;;;;;;5132809;27;20280;-76
2023/07/18 05:46:13;;;;;;;3.93;1.57;;;;;;;;;;5132399;27;20315;-76
2023/07/18 05:48:40;;;;;;;5.97;1.80;;;;;;;;;;5132480;27;20280;-76
2023/07/18 05:51:08;;;;;;;6.03;1.87;;;;;;;;;;5132312;27;20228;-76
2023/07/18 05:53:36;;;;;;;3.47;1.47;;;;;;;;;;5132622;27;20197;-76
2023/07/18 05:56:03;;;;;;;3.37;1.50;;;;;;;;;;5132006;28;20666;-76
2023/07/18 05:58:31;;;;;;;3.17;1.73;;;;;;;;;;5132222;27;20635;-76
2023/07/18 06:00:58;;;;;;;6.73;1.90;;;;;;;;;;5132027;27;20197;-76
2023/07/18 06:03:26;;;;;;;4.73;1.30;;;;;;;;;;5132175;27;20228;-75
2023/07/18 06:05:56;;;;;;;4.47;1.70;;;;;;;;;;5132222;27;20272;-76
2023/07/18 06:08:24;;;;;;;3.55;1.30;;;;;;;;;;5132448;28;20276;-76
2023/07/18 06:10:56;;;;;;;3.60;1.52;;;;;;;;;;5131904;27;20196;-76
2023/07/18 06:13:24;;;;;;;4.65;1.50;;;;;;;;;;5132217;28;20848;-76
2023/07/18 06:15:52;;;;;;;3.88;1.50;;;;;;;;;;5132279;28;20229;-76
2023/07/18 06:18:19;;;;;;;3.88;1.30;;;;;;;;;;5132261;28;20241;-77
2023/07/18 06:20:47;;;;;;;4.30;1.60;;;;;;;;;;5131784;28;20197;-76
2023/07/18 06:23:14;;;;;;;2.88;1.70;;;;;;;;;;5132158;28;20657;-76
2023/07/18 06:25:41;;;;;;;4.10;1.58;;;;;;;;;;5131895;28;20224;-76
2023/07/18 06:28:08;;;;;;;2.42;1.30;;;;;;;;;;5132417;28;20688;-76
2023/07/18 06:30:36;;;;;;;3.15;1.40;;;;;;;;;;5132221;28;20288;-76
2023/07/18 06:33:04;;;;;;;4.75;1.75;;;;;;;;;;5131933;27;20197;-77
2023/07/18 06:35:33;;;;;;;2.75;1.42;;;;;;;;;;5132150;27;20198;-76
2023/07/18 06:38:00;;;;;;;4.47;1.60;;;;;;;;;;5132474;27;20196;-76
2023/07/18 06:40:27;;;;;;;5.97;2.00;;;;;;;;;;5131608;28;20193;-77
2023/07/18 06:42:54;;;;;;;3.83;1.50;;;;;;;;;;5132080;27;20313;-75
2023/07/18 06:45:21;;;;;;;8.00;1.73;;;;;;;;;;5131886;27;20280;-76
2023/07/18 06:47:49;;;;;;;5.70;1.85;;;;;;;;;;5132320;27;20317;-76
2023/07/18 06:50:17;;;;;;;6.07;2.00;;;;;;;;;;5131932;28;20201;-75
2023/07/18 06:52:45;;;;;;;5.95;2.08;;;;;;;;;;5131417;27;20783;-75
2023/07/18 06:55:12;;;;;;;5.25;1.52;;;;;;;;;;5131496;27;20189;-77
2023/07/18 06:57:39;;;;;;;3.28;1.60;;;;;;;;;;5132146;27;20280;-75
2023/07/18 07:00:07;;;;;;;8.57;2.10;;;;;;;;;;5131715;27;20199;-75
2023/07/18 07:02:34;;;;;;;4.00;1.83;;;;;;;;;;5132146;27;20280;-76
2023/07/18 07:05:01;;;;;;;4.32;1.65;;;;;;;;;;5132057;27;20197;-76
2023/07/18 07:07:30;;;;;;;5.68;1.90;;;;;;;;;;5131720;27;20228;-75
2023/07/18 07:09:57;;;;;;;7.40;2.13;;;;;;;;;;5133797;27;20224;-75
2023/07/18 07:12:24;;;;;;;6.22;2.17;;;;;;;;;;5135845;27;20221;-75
2023/07/18 07:14:51;;;;;;;6.22;2.08;;;;;;;;;;5135427;27;20194;-75
2023/07/18 07:17:19;;;;;;;6.57;1.70;;;;;;;;;;5135325;27;20280;-75
2023/07/18 07:19:46;;;;;;;9.02;2.20;;;;;;;;;;5135389;27;20193;-75
2023/07/18 07:22:14;;;;;;;5.43;1.90;;;;;;;;;;5134975;27;20193;-76
2023/07/18 07:24:43;;;;;;;4.28;1.63;;;;;;;;;;5135010;27;20665;-75
2023/07/18 07:27:10;;;;;;;4.60;1.70;;;;;;;;;;5135433;27;20323;-76
2023/07/18 07:29:40;;;;;;;4.60;1.90;;;;;;;;;;5135289;27;20285;-75
2023/07/18 07:32:07;;;;;;;5.50;1.92;;;;;;;;;;5135191;27;20201;-75
2023/07/18 07:34:34;;;;;;;6.13;1.83;;;;;;;;;;5134903;27;20296;-77
2023/07/18 07:37:02;;;;;;;9.55;2.45;;;;;;;;;;5134917;27;20688;-76
2023/07/18 07:39:29;;;;;;;7.13;1.73;;;;;;;;;;5134591;27;20531;-75
2023/07/18 07:41:58;;;;;;;4.65;1.80;;;;;;;;;;5134940;27;20280;-75
2023/07/18 07:44:25;;;;;;;6.00;1.75;;;;;;;;;;5134949;27;20221;-76
2023/07/18 07:46:52;;;;;;;4.90;2.13;;;;;;;;;;5134838;27;20599;-77
2023/07/18 07:49:19;;;;;;;4.65;2.10;;;;;;;;;;5134695;27;20201;-75
2023/07/18 07:51:46;;;;;;;7.95;1.77;;;;;;;;;;5134459;27;20311;-76
2023/07/18 07:54:14;;;;;;;6.20;1.90;;;;;;;;;;5134722;27;20639;-76
2023/07/18 07:56:41;;;;;;;4.30;2.00;;;;;;;;;;5134596;27;20807;-77
2023/07/18 07:59:10;;;;;;;6.68;2.20;;;;;;;;;;5134737;27;20242;-76
2023/07/18 08:01:37;;;;;;;4.72;1.58;;;;;;;;;;5134517;27;20225;-76
2023/07/18 08:04:04;;;;;;;6.82;1.92;;;;;;;;;;5134476;27;20690;-75
2023/07/18 08:06:31;;;;;;;6.90;2.03;;;;;;;;;;5134029;27;20324;-77
2023/07/18 08:08:59;;;;;;;7.95;1.80;;;;;;;;;;5134324;27;20221;-76
2023/07/18 08:11:26;;;;;;;4.15;1.70;;;;;;;;;;5134304;27;20556;-75
2023/07/18 08:13:53;;;;;;;4.65;1.85;;;;;;;;;;5134576;27;20740;-77
2023/07/18 08:16:22;;;;;;;11.93;2.10;;;;;;;;;;5133713;27;20745;-77
2023/07/18 08:18:49;;;;;;;3.53;1.60;;;;;;;;;;5134310;27;20280;-76
2023/07/18 08:21:18;;;;;;;4.32;1.95;;;;;;;;;;5133621;27;20224;-77
2023/07/18 08:23:46;;;;;;;5.82;1.80;;;;;;;;;;5134167;27;20288;-76
2023/07/18 08:26:14;;;;;;;5.13;1.65;;;;;;;;;;5134099;27;20192;-76
2023/07/18 08:28:41;;;;;;;2.50;1.55;;;;;;;;;;5133544;27;20250;-76
2023/07/18 08:31:08;;;;;;;3.38;1.70;;;;;;;;;;5133669;27;20715;-77
2023/07/18 08:33:37;;;;;;;4.30;1.70;;;;;;;;;;5133905;27;20197;-76
2023/07/18 08:36:04;;;;;;;5.10;1.85;;;;;;;;;;5133502;27;20193;-76
2023/07/18 08:38:31;;;;;;;2.10;1.40;;;;;;;;;;5133527;27;20197;-76
2023/07/18 08:40:59;;;;;;;2.60;1.58;;;;;;;;;;5133383;27;20189;-76
2023/07/18 08:43:26;;;;;;;3.88;1.58;;;;;;;;;;5133745;27;20232;-77
2023/07/18 08:45:53;;;;;;;2.95;1.48;;;;;;;;;;5133602;27;20292;-76
2023/07/18 08:48:20;;;;;;;2.80;1.80;;;;;;;;;;5133494;27;20231;-77
2023/07/18 08:50:49;;;;;;;4.88;1.67;;;;;;;;;;5133224;27;20316;-77
2023/07/18 08:53:16;;;;;;;2.55;1.25;;;;;;;;;;5133696;27;20284;-77
2023/07/18 08:55:43;;;;;;;3.72;1.60;;;;;;;;;;5133243;27;20288;-77
2023/07/18 08:58:11;;;;;;;2.25;1.42;;;;;;;;;;5133674;27;20463;-77
2023/07/18 09:00:38;;;;;;;4.32;1.50;;;;;;;;;;5133107;27;20669;-77
2023/07/18 09:03:05;;;;;;;4.95;1.60;;;;;;;;;;5133284;27;20287;-77
2023/07/18 09:05:33;;;;;;;3.47;1.50;;;;;;;;;;5132708;27;20660;-76
2023/07/18 09:08:03;;;;;;;3.97;1.50;;;;;;;;;;5133297;27;20225;-78
2023/07/18 09:10:30;;;;;;;2.95;1.20;;;;;;;;;;5133578;27;20213;-76
2023/07/18 09:13:02;;;;;;;4.95;1.60;;;;;;;;;;5133183;27;20617;-78
2023/07/18 09:15:29;;;;;;;4.38;1.38;;;;;;;;;;5133113;27;20193;-78
2023/07/18 09:17:57;;;;;;;5.68;1.50;;;;;;;;;;5133289;27;20201;-76
2023/07/18 09:20:25;;;;;;;3.50;1.65;;;;;;;;;;5132534;27;20216;-77
2023/07/18 09:22:56;;;;;;;2.83;1.50;;;;;;;;;;5133217;27;20200;-78
2023/07/18 09:25:25;;;;;;;1.88;1.30;;;;;;;;;;5132822;27;20193;-77
2023/07/18 09:27:52;;;;;;;3.70;1.30;;;;;;;;;;5132620;27;20735;-77
2023/07/18 09:30:23;;;;;;;3.25;1.45;;;;;;;;;;5132645;27;20197;-77
2023/07/18 09:32:51;;;;;;;3.60;1.50;;;;;;;;;;5131658;27;20209;-77
2023/07/18 09:35:18;;;;;;;4.75;1.90;;;;;;;;;;5132897;27;20212;-77
2023/07/18 09:37:46;;;;;;;3.92;1.38;;;;;;;;;;5132866;27;20197;-78
2023/07/18 09:40:15;;;;;;;7.35;2.05;;;;;;;;;;5132761;27;20769;-78
2023/07/18 09:42:45;;;;;;;2.72;1.42;;;;;;;;;;5132753;27;20193;-78
2023/07/18 09:45:12;;;;;;;3.58;1.40;;;;;;;;;;5132872;27;20201;-78
2023/07/18 09:47:41;;;;;;;2.30;1.52;;;;;;;;;;5132377;27;20248;-77
2023/07/18 09:50:09;;;;;;;3.08;1.38;;;;;;;;;;5132534;27;20733;-76
2023/07/18 09:52:36;;;;;;;1.90;1.40;;;;;;;;;;5132062;27;20271;-78
2023/07/18 09:55:06;;;;;;;6.38;1.77;;;;;;;;;;5132216;27;20666;-77
2023/07/18 09:57:34;;;;;;;3.85;1.58;;;;;;;;;;5132226;27;20190;-78
2023/07/18 10:00:05;;;;;;;3.17;1.40;;;;;;;;;;5132429;27;20189;-77
2023/07/18 10:02:33;;;;;;;3.53;1.60;;;;;;;;;;5131997;27;20304;-78
2023/07/18 10:05:02;;;;;;;3.20;1.90;;;;;;;;;;5132549;27;20594;-77
2023/07/18 10:07:30;;;;;;;4.05;1.40;;;;;;;;;;5132338;28;20228;-78
2023/07/18 10:09:58;;;;;;;2.65;1.50;;;;;;;;;;5132543;28;20193;-77
2023/07/18 10:12:25;;;;;;;3.80;1.65;;;;;;;;;;5132567;28;20232;-78
2023/07/18 10:14:56;;;;;;;4.55;1.70;;;;;;;;;;5132142;28;20280;-78
2023/07/18 10:17:35;;;;;;;4.40;1.40;;;;;;;;;;5132082;28;20686;-78
2023/07/18 10:20:05;;;;;;;2.70;1.70;;;;;;;;;;5131598;27;20265;-75
2023/07/18 10:22:33;;;;;;;3.08;1.70;;;;;;;;;;5132271;28;20594;-78
2023/07/18 10:25:01;;;;;;;3.05;1.50;;;;;;;;;;5132162;28;20288;-77
2023/07/18 10:27:36;;;;;;;3.80;1.67;;;;;;;;;;5132127;28;20252;-77
2023/07/18 10:30:04;;;;;;;1.23;1.13;;;;;;;;;;5131747;28;20193;-77
2023/07/18 10:32:33;;;;;;;4.03;1.55;;;;;;;;;;5131956;28;20193;-79
2023/07/18 10:35:00;;;;;;;3.45;1.50;;;;;;;;;;5131880;28;20196;-77
2023/07/18 10:37:27;;;;;;;3.72;1.48;;;;;;;;;;5132009;28;20284;-78
2023/07/18 10:39:55;;;;;;;8.27;1.70;;;;;;;;;;5132661;28;20292;-77
2023/07/18 10:42:24;;;;;;;3.50;1.33;;;;;;;;;;5131824;27;20242;-77
2023/07/18 10:44:55;;;;;;;2.22;1.27;;;;;;;;;;5135732;27;20295;-78
2023/07/18 10:47:22;;;;;;;2.70;1.48;;;;;;;;;;5135601;27;20308;-78
2023/07/18 10:49:51;;;;;;;3.42;1.23;;;;;;;;;;5135995;27;20287;-78
2023/07/18 10:52:18;;;;;;;2.83;1.30;;;;;;;;;;5135996;27;20235;-78
2023/07/18 10:54:46;;;;;;;3.50;1.38;;;;;;;;;;5135695;27;20197;-77
2023/07/18 10:57:13;;;;;;;1.55;1.10;;;;;;;;;;5135374;27;20262;-76
2023/07/18 10:59:43;;;;;;;6.00;1.30;;;;;;;;;;5136036;27;20247;-77
2023/07/18 11:02:10;;;;;;;2.55;1.40;;;;;;;;;;5134129;27;20203;-77
2023/07/18 11:04:38;;;;;;;3.08;1.30;;;;;;;;;;5133574;27;20199;-78
2023/07/18 11:07:10;;;;;;;2.78;1.40;;;;;;;;;;5132838;27;20283;-80
2023/07/18 11:09:37;;;;;;;3.28;1.40;;;;;;;;;;5131569;27;20196;-78
2023/07/18 11:12:05;;;;;;;3.60;1.50;;;;;;;;;;5104822;27;20292;-79
2023/07/18 11:14:38;;;;;;;3.20;1.50;;;;;;;;;;5126878;27;20581;-78
2023/07/18 11:17:10;;;;;;;2.13;1.30;;;;;;;;;;5125062;27;20189;-79
2023/07/18 11:19:37;;;;;;;2.28;1.50;;;;;;;;;;5126433;27;20852;-78
2023/07/18 11:22:05;;;;;;;2.38;1.48;;;;;;;;;;5138909;27;20242;-78
2023/07/18 11:24:34;;;;;;;2.85;1.67;;;;;;;;;;5136102;27;20284;-78
2023/07/18 11:27:15;;;;;;;2.13;1.48;;;;;;;;;;5134619;27;20273;-79
2023/07/18 11:29:42;;;;;;;4.22;1.38;;;;;;;;;;5139871;27;20195;-77
2023/07/18 11:32:11;;;;;;;3.72;2.00;;;;;;;;;;5155451;27;20220;-78
2023/07/18 11:34:40;;;;;;;2.47;1.95;;;;;;;;;;5139008;27;20730;-78
2023/07/18 11:37:08;;;;;;;2.78;1.67;;;;;;;;;;5131660;27;20283;-77
2023/07/18 11:39:37;;;;;;;2.85;1.92;;;;;;;;;;5139611;27;20197;-77
2023/07/18 11:42:08;;;;;;;2.85;2.25;;;;;;;;;;5120489;27;20189;-79
2023/07/18 11:44:36;;;;;;;2.97;1.58;;;;;;;;;;5140323;27;20200;-79
2023/07/18 11:47:12;;;;;;;2.53;1.50;;;;;;;;;;5134583;27;20691;-79
2023/07/18 11:49:39;;;;;;;2.33;1.67;;;;;;;;;;5150671;27;20282;-79
2023/07/18 11:52:08;;;;;;;2.95;1.45;;;;;;;;;;5140187;27;20933;-80
2023/07/18 11:54:36;;;;;;;3.30;1.67;;;;;;;;;;5144922;27;20193;-79
2023/07/18 11:57:04;;;;;;;2.53;1.50;;;;;;;;;;5132563;27;20192;-79
2023/07/18 11:59:32;;;;;;;3.05;1.45;;;;;;;;;;5141784;27;20640;-78
2023/07/18 12:01:59;;;;;;;3.38;1.45;;;;;;;;;;5141138;27;20283;-78
2023/07/18 12:04:26;;;;;;;2.58;1.27;;;;;;;;;;5136832;27;20314;-78
2023/07/18 12:06:54;;;;;;;2.33;1.40;;;;;;;;;;5133957;27;20204;-79
2023/07/18 12:09:21;;;;;;;3.40;1.92;;;;;;;;;;5134317;27;20220;-78
2023/07/18 12:11:48;;;;;;;3.47;1.48;;;;;;;;;;5133963;27;20188;-77
2023/07/18 12:14:17;;;;;;;3.33;1.58;;;;;;;;;;5133401;27;20287;-78
2023/07/18 12:16:44;;;;;;;1.90;1.55;;;;;;;;;;5134327;27;20235;-78
2023/07/18 12:19:12;;;;;;;4.30;1.65;;;;;;;;;;5133082;27;20192;-79
2023/07/18 12:21:40;;;;;;;2.20;1.65;;;;;;;;;;5133792;27;20661;-78
2023/07/18 12:24:07;;;;;;;2.63;1.75;;;;;;;;;;5133495;27;20622;-78
2023/07/18 12:26:35;;;;;;;3.53;1.30;;;;;;;;;;5133630;27;20284;-78
2023/07/18 12:29:03;;;;;;;3.05;1.38;;;;;;;;;;5138601;27;20223;-78
2023/07/18 12:31:33;;;;;;;3.47;1.40;;;;;;;;;;5133693;27;20208;-78
2023/07/18 12:34:00;;;;;;;3.17;1.30;;;;;;;;;;5134962;27;20749;-77
2023/07/18 12:36:27;;;;;;;3.03;1.45;;;;;;;;;;5137501;27;20196;-78
2023/07/18 12:38:55;;;;;;;4.40;1.50;;;;;;;;;;5133211;27;20242;-78
2023/07/18 12:41:22;;;;;;;2.67;1.50;;;;;;;;;;5132454;27;20661;-78
2023/07/18 12:43:49;;;;;;;2.40;1.35;;;;;;;;;;5133487;27;20906;-78
2023/07/18 12:46:16;;;;;;;4.28;1.60;;;;;;;;;;5133423;27;20684;-79
2023/07/18 12:48:46;;;;;;;1.73;1.40;;;;;;;;;;5153473;27;20716;-78
2023/07/18 12:51:13;;;;;;;2.67;1.42;;;;;;;;;;5144776;27;20328;-78
2023/07/18 12:53:40;;;;;;;2.00;1.30;;;;;;;;;;5148794;27;20197;-77
2023/07/18 12:56:07;;;;;;;2.22;1.40;;;;;;;;;;5153301;27;20227;-78
2023/07/18 12:58:35;;;;;;;2.67;1.70;;;;;;;;;;5144904;27;20192;-78
2023/07/18 13:01:02;;;;;;;2.05;1.50;;;;;;;;;;5153823;27;20227;-78
2023/07/18 13:03:29;;;;;;;5.57;1.60;;;;;;;;;;5141534;27;20228;-78
2023/07/18 13:05:58;;;;;;;3.22;1.77;;;;;;;;;;5132156;27;20228;-78
2023/07/18 13:08:25;;;;;;;4.70;1.70;;;;;;;;;;5132480;27;20272;-78
2023/07/18 13:10:52;;;;;;;2.42;1.67;;;;;;;;;;5123946;27;20221;-77
2023/07/18 13:13:20;;;;;;;2.83;1.50;;;;;;;;;;5137031;27;20252;-77
2023/07/18 13:15:47;;;;;;;2.60;1.60;;;;;;;;;;5131911;27;20220;-78
2023/07/18 13:18:14;;;;;;;4.82;1.67;;;;;;;;;;5121272;27;20289;-77
2023/07/18 13:20:41;;;;;;;3.10;1.60;;;;;;;;;;5120253;27;20200;-77
2023/07/18 13:23:10;;;;;;;3.50;1.70;;;;;;;;;;5116868;27;20200;-78
2023/07/18 13:25:37;;;;;;;2.72;1.38;;;;;;;;;;5112831;27;20619;-78
2023/07/18 13:28:05;;;;;;;3.13;1.50;;;;;;;;;;5112087;28;20256;-78
2023/07/18 13:30:32;;;;;;;3.03;1.65;;;;;;;;;;5112511;27;20295;-77
2023/07/18 13:32:59;;;;;;;2.50;1.67;;;;;;;;;;5125065;27;20244;-78
2023/07/18 13:35:27;;;;;;;5.30;1.50;;;;;;;;;;5111604;27;20201;-78
2023/07/18 13:37:54;;;;;;;3.05;1.60;;;;;;;;;;5119716;27;20639;-78
2023/07/18 13:40:22;;;;;;;3.00;1.60;;;;;;;;;;5130911;27;20225;-78
2023/07/18 13:42:50;;;;;;;4.45;1.70;;;;;;;;;;5132243;27;20561;-78
2023/07/18 13:45:17;;;;;;;3.90;1.58;;;;;;;;;;5130071;27;20235;-77
2023/07/18 13:47:44;;;;;;;2.95;1.60;;;;;;;;;;5134370;27;20300;-78
2023/07/18 13:50:11;;;;;;;4.72;1.85;;;;;;;;;;5132115;27;20275;-78
2023/07/18 13:52:39;;;;;;;4.05;1.98;;;;;;;;;;5130048;27;20246;-78
2023/07/18 13:55:07;;;;;;;3.35;2.00;;;;;;;;;;5131395;27;20197;-78
2023/07/18 13:57:35;;;;;;;4.00;2.10;;;;;;;;;;5131719;27;20279;-78
2023/07/18 14:00:02;;;;;;;2.63;1.88;;;;;;;;;;5148111;27;20208;-78
2023/07/18 14:02:30;;;;;;;2.28;1.60;;;;;;;;;;5147768;27;20280;-78
2023/07/18 14:04:57;;;;;;;3.10;1.90;;;;;;;;;;5130651;27;20630;-78
2023/07/18 14:07:24;;;;;;;4.63;2.10;;;;;;;;;;5131499;28;20192;-78
2023/07/18 14:09:51;;;;;;;3.53;2.03;;;;;;;;;;5131297;28;20277;-78
2023/07/18 14:12:18;;;;;;;3.92;2.10;;;;;;;;;;5131174;28;20289;-78
2023/07/18 14:14:47;;;;;;;4.30;2.20;;;;;;;;;;5131575;27;20737;-78
2023/07/18 14:17:14;;;;;;;4.97;2.28;;;;;;;;;;5130096;27;20285;-79
2023/07/18 14:19:41;;;;;;;4.88;2.50;;;;;;;;;;5131315;27;20197;-78
2023/07/18 14:22:09;;;;;;;6.18;2.30;;;;;;;;;;5130224;27;20197;-78
2023/07/18 14:24:37;;;;;;;3.58;2.05;;;;;;;;;;5135359;27;20245;-79
2023/07/18 14:27:04;;;;;;;4.00;2.50;;;;;;;;;;5135537;27;20721;-78
2023/07/18 14:29:32;;;;;;;2.88;2.20;;;;;;;;;;5135465;27;20306;-79
2023/07/18 14:32:01;;;;;;;3.35;2.30;;;;;;;;;;5125948;27;20193;-79
2023/07/18 14:34:29;;;;;;;2.83;2.47;;;;;;;;;;5131649;27;20195;-78
2023/07/18 14:36:56;;;;;;;4.20;2.33;;;;;;;;;;5135198;27;20257;-79
2023/07/18 14:39:23;;;;;;;5.90;2.47;;;;;;;;;;5123789;27;20371;-80
2023/07/18 14:41:50;;;;;;;3.60;2.20;;;;;;;;;;5132038;27;20660;-80
2023/07/18 14:44:17;;;;;;;3.65;1.98;;;;;;;;;;5123206;27;20201;-79
2023/07/18 14:46:45;;;;;;;4.07;2.22;;;;;;;;;;5135532;27;20233;-80